createdAt,value
2023-03-01T00:09:46.975Z,42.33
2023-03-01T00:24:49.049Z,40.85
2023-03-01T00:39:51.191Z,42.88
2023-03-01T00:54:54.060Z,40.22
2023-03-01T01:09:56.283Z,41.08
2023-03-01T01:24:58.374Z,41.80
2023-03-01T01:40:04.775Z,42.50
2023-03-01T01:55:22.015Z,44.63
2023-03-01T02:10:25.671Z,44.45
2023-03-01T02:25:36.740Z,43.08
2023-03-01T02:40:40.309Z,45.00
2023-03-01T02:55:42.359Z,50.60
2023-03-01T03:10:44.512Z,43.70
2023-03-01T03:25:48.640Z,43.63
2023-03-01T03:40:53.023Z,42.08
2023-03-01T03:55:55.604Z,49.70
2023-03-01T04:11:25.705Z,44.03
2023-03-01T04:26:28.415Z,47.50
2023-03-01T04:41:30.429Z,56.38
2023-03-01T04:56:32.729Z,46.58
2023-03-01T05:11:36.921Z,48.33
2023-03-01T05:26:41.624Z,43.92
2023-03-01T05:41:43.680Z,42.88
2023-03-01T05:56:46.274Z,50.35
2023-03-01T06:11:48.170Z,47.88
2023-03-01T06:26:50.166Z,54.15
2023-03-01T06:41:53.715Z,41.72
2023-03-01T06:56:56.154Z,51.30
2023-03-01T07:11:59.024Z,50.70
2023-03-01T07:27:00.948Z,58.67
2023-03-01T07:42:02.930Z,50.83
2023-03-01T07:57:04.977Z,54.08
2023-03-01T08:12:07.253Z,45.08
2023-03-01T08:27:09.957Z,43.22
2023-03-01T08:42:11.895Z,30.00
2023-03-01T08:57:13.891Z,32.45
2023-03-01T09:12:15.931Z,26.35
2023-03-01T09:27:20.043Z,23.67
2023-03-01T09:42:22.508Z,29.75
2023-03-01T09:57:51.665Z,27.73
2023-03-01T10:12:54.918Z,30.92
2023-03-01T10:28:05.267Z,28.45
2023-03-01T10:43:07.371Z,25.73
2023-03-01T10:58:18.508Z,25.35
2023-03-01T11:13:21.314Z,22.00
2023-03-01T11:28:24.078Z,25.13
2023-03-01T11:43:34.859Z,21.98
2023-03-01T11:59:08.210Z,21.80
2023-03-01T12:14:34.334Z,17.27
2023-03-01T12:29:59.158Z,11.98
2023-03-01T12:45:20.043Z,18.95
2023-03-01T13:01:01.838Z,16.15
2023-03-01T13:16:30.103Z,12.98
2023-03-01T13:31:32.414Z,10.85
2023-03-01T13:46:35.141Z,10.85
2023-03-01T14:01:37.987Z,10.93
2023-03-01T14:16:46.885Z,10.10
2023-03-01T14:31:53.243Z,11.32
2023-03-01T14:46:57.109Z,11.27
2023-03-01T15:02:00.303Z,12.77
2023-03-01T15:17:02.245Z,12.90
2023-03-01T15:32:07.720Z,12.57
2023-03-01T15:47:29.856Z,11.93
2023-03-01T16:02:31.790Z,14.80
2023-03-01T16:17:33.761Z,15.18
2023-03-01T16:32:40.522Z,18.45
2023-03-01T16:47:43.063Z,17.63
2023-03-01T17:02:45.463Z,17.52
2023-03-01T17:17:51.887Z,20.50
2023-03-01T17:32:55.875Z,19.58
2023-03-01T17:47:58.064Z,22.48
2023-03-01T18:03:00.144Z,20.75
2023-03-01T18:18:02.289Z,22.30
2023-03-01T18:33:04.377Z,24.20
2023-03-01T18:48:06.449Z,26.15
2023-03-01T19:03:08.932Z,27.48
2023-03-01T19:18:10.936Z,28.48
2023-03-01T19:33:25.472Z,35.35
2023-03-01T20:04:34.271Z,37.83
2023-03-01T20:19:38.967Z,38.73
2023-03-01T20:34:48.671Z,41.90
2023-03-01T20:49:52.183Z,55.72
2023-03-01T21:04:54.435Z,48.22
2023-03-01T21:19:58.654Z,66.00
2023-03-01T21:35:00.850Z,76.57
2023-03-01T21:50:02.796Z,80.65
2023-03-01T22:05:04.968Z,86.07
2023-03-01T22:20:07.702Z,67.82
2023-03-01T22:35:10.047Z,47.88
2023-03-01T22:50:15.229Z,48.75
2023-03-01T23:05:17.213Z,52.78
2023-03-01T23:20:19.331Z,50.92
2023-03-01T23:35:21.344Z,55.72
2023-03-01T23:50:24.410Z,67.47
